createdAt,value
2019-04-16T00:01:57.694Z,7.17
2019-04-16T00:04:42.064Z,7.21
2019-04-16T00:07:17.714Z,7.13
2019-04-16T00:09:50.415Z,7.07
2019-04-16T00:12:23.150Z,6.97
2019-04-16T00:14:55.891Z,6.86
2019-04-16T00:17:27.059Z,6.80
2019-04-16T00:19:58.150Z,6.73
2019-04-16T00:22:36.633Z,6.76
2019-04-16T00:25:07.949Z,6.76
2019-04-16T00:27:39.102Z,6.78
2019-04-16T00:30:10.515Z,6.84
2019-04-16T00:32:42.633Z,6.83
2019-04-16T00:35:15.662Z,6.78
2019-04-16T00:37:51.372Z,6.75
2019-04-16T00:40:19.548Z,6.67
2019-04-16T00:42:49.764Z,6.52
2019-04-16T00:45:21.003Z,6.32
2019-04-16T00:47:52.167Z,6.20
2019-04-16T00:50:23.487Z,6.10
2019-04-16T00:52:54.379Z,6.14
2019-04-16T00:55:25.627Z,6.15
2019-04-16T00:57:56.594Z,6.09
2019-04-16T01:00:30.622Z,6.07
2019-04-16T01:03:00.746Z,5.99
2019-04-16T01:05:35.059Z,5.94
2019-04-16T01:08:04.777Z,5.84
2019-04-16T01:10:36.373Z,5.80
2019-04-16T01:13:07.363Z,5.81
2019-04-16T01:15:37.539Z,5.78
2019-04-16T01:18:09.012Z,5.72
2019-04-16T01:20:40.456Z,5.68
2019-04-16T01:23:17.587Z,5.67
2019-04-16T01:25:45.877Z,5.60
2019-04-16T01:28:36.899Z,5.49
2019-04-16T01:31:27.690Z,5.38
2019-04-16T01:34:00.481Z,5.29
2019-04-16T01:36:39.122Z,5.18
2019-04-16T01:39:18.102Z,5.21
2019-04-16T01:41:47.517Z,5.24
2019-04-16T01:44:18.665Z,5.26
2019-04-16T01:46:49.627Z,5.16
2019-04-16T01:49:20.666Z,5.09
2019-04-16T01:51:51.659Z,4.97
2019-04-16T01:54:23.477Z,4.81
2019-04-16T01:56:54.507Z,4.71
2019-04-16T01:59:25.759Z,4.59
2019-04-16T02:01:56.899Z,4.43
2019-04-16T02:04:27.014Z,4.34
2019-04-16T02:06:58.201Z,4.34
2019-04-16T02:09:34.234Z,4.33
2019-04-16T02:12:02.312Z,4.25
2019-04-16T02:14:33.378Z,4.14
2019-04-16T02:17:04.839Z,4.08
2019-04-16T02:19:35.930Z,3.97
2019-04-16T02:22:07.127Z,3.86
2019-04-16T02:24:38.078Z,3.79
2019-04-16T02:27:09.289Z,3.78
2019-04-16T02:29:40.276Z,3.70
2019-04-16T02:32:11.740Z,3.64
2019-04-16T02:34:43.117Z,3.56
2019-04-16T02:37:13.230Z,3.54
2019-04-16T02:39:49.100Z,3.49
2019-04-16T02:42:17.093Z,3.39
2019-04-16T02:44:50.038Z,3.34
2019-04-16T02:47:21.023Z,3.26
2019-04-16T02:49:56.429Z,3.25
2019-04-16T02:52:50.551Z,3.20
2019-04-16T02:55:21.435Z,3.14
2019-04-16T02:58:00.290Z,3.00
2019-04-16T03:00:34.513Z,2.92
2019-04-16T03:03:07.257Z,2.93
2019-04-16T03:05:43.849Z,2.87
2019-04-16T03:08:14.873Z,2.79
2019-04-16T03:10:46.189Z,2.69
2019-04-16T03:13:17.457Z,2.70
2019-04-16T03:18:33.322Z,2.64
2019-04-16T03:21:04.667Z,2.51
2019-04-16T03:23:37.590Z,2.43
2019-04-16T03:26:07.412Z,2.41
2019-04-16T03:28:38.550Z,2.39
2019-04-16T03:31:18.360Z,2.36
2019-04-16T03:33:48.352Z,2.35
2019-04-16T03:36:15.043Z,2.31
2019-04-16T03:38:46.136Z,2.29
2019-04-16T03:41:17.406Z,2.28
2019-04-16T03:43:48.648Z,2.26
2019-04-16T03:46:19.701Z,2.25
2019-04-16T03:48:52.645Z,2.21
2019-04-16T03:51:23.524Z,2.22
2019-04-16T03:53:54.719Z,2.20
2019-04-16T03:56:27.623Z,2.20
2019-04-16T03:58:57.513Z,2.11
2019-04-16T04:01:28.713Z,2.07
2019-04-16T04:03:59.964Z,2.08
2019-04-16T04:06:31.152Z,2.05
2019-04-16T04:09:02.134Z,1.99
2019-04-16T04:11:33.763Z,1.93
2019-04-16T04:14:04.882Z,1.93
2019-04-16T04:16:36.113Z,1.95
2019-04-16T04:19:07.066Z,1.98
2019-04-16T04:21:38.209Z,1.91
2019-04-16T04:24:09.137Z,1.84
2019-04-16T04:26:42.051Z,1.78
2019-04-16T04:29:12.925Z,1.71
2019-04-16T04:31:45.428Z,1.70
2019-04-16T04:34:17.409Z,1.64
2019-04-16T04:36:47.936Z,1.64
2019-04-16T04:39:19.040Z,1.62
2019-04-16T04:41:52.593Z,1.60
2019-04-16T04:44:23.031Z,1.61
2019-04-16T04:46:55.128Z,1.67
2019-04-16T04:49:30.090Z,1.63
2019-04-16T04:51:59.347Z,1.69
2019-04-16T04:54:30.606Z,1.73
2019-04-16T04:57:01.644Z,1.75
2019-04-16T04:59:36.487Z,1.77
2019-04-16T05:02:05.817Z,1.77
2019-04-16T05:04:49.601Z,1.78
2019-04-16T05:07:20.828Z,1.85
2019-04-16T05:09:50.924Z,1.90
2019-04-16T05:12:24.423Z,1.99
2019-04-16T05:14:58.657Z,2.05
2019-04-16T05:17:29.652Z,2.11
2019-04-16T05:20:00.891Z,2.22
2019-04-16T05:22:34.907Z,2.32
2019-04-16T05:25:07.406Z,2.41
2019-04-16T05:27:41.016Z,2.53
2019-04-16T05:30:11.569Z,2.67
2019-04-16T05:32:42.652Z,2.74
2019-04-16T05:35:13.689Z,2.81
2019-04-16T05:37:44.742Z,2.95
2019-04-16T05:40:16.083Z,3.11
2019-04-16T05:42:47.251Z,3.26
2019-04-16T05:45:18.573Z,3.47
2019-04-16T05:47:51.798Z,3.64
2019-04-16T05:50:23.138Z,3.89
2019-04-16T05:52:54.671Z,4.28
2019-04-16T05:55:27.534Z,4.68
2019-04-16T05:57:59.616Z,5.04
2019-04-16T06:00:42.434Z,5.41
2019-04-16T06:03:13.431Z,5.81
2019-04-16T06:05:45.920Z,6.13
2019-04-16T06:08:17.039Z,6.52
2019-04-16T06:10:51.102Z,7.01
2019-04-16T06:13:31.176Z,7.49
2019-04-16T06:16:07.097Z,8.04
2019-04-16T06:18:40.175Z,8.63
2019-04-16T06:21:18.797Z,9.37
2019-04-16T06:24:04.240Z,9.97
2019-04-16T06:26:39.863Z,10.54
2019-04-16T06:29:15.525Z,11.18
2019-04-16T06:31:50.938Z,12.02
2019-04-16T06:34:29.869Z,12.40
2019-04-16T06:37:13.298Z,12.70
2019-04-16T06:39:46.161Z,13.79
2019-04-16T06:42:20.978Z,14.42
2019-04-16T06:44:52.487Z,13.93
2019-04-16T06:47:31.345Z,14.21
2019-04-16T06:50:31.532Z,13.65
2019-04-16T06:53:10.842Z,13.75
2019-04-16T06:55:59.973Z,13.43
2019-04-16T06:58:51.510Z,12.48
2019-04-16T07:01:27.120Z,12.29
2019-04-16T07:03:59.997Z,12.29
2019-04-16T07:06:48.244Z,12.37
2019-04-16T07:09:23.391Z,12.52
2019-04-16T07:11:55.071Z,12.54
2019-04-16T07:14:26.405Z,12.19
2019-04-16T07:17:00.194Z,12.51
2019-04-16T07:19:30.915Z,12.50
2019-04-16T07:22:03.245Z,12.63
2019-04-16T07:24:37.184Z,12.85
2019-04-16T07:27:08.845Z,13.11
2019-04-16T07:29:41.465Z,13.14
2019-04-16T07:32:14.309Z,13.07
2019-04-16T07:34:47.057Z,13.35
2019-04-16T07:37:24.227Z,13.41
2019-04-16T07:39:56.761Z,13.81
2019-04-16T07:42:29.667Z,14.12
2019-04-16T07:45:16.616Z,13.92
2019-04-16T07:48:06.117Z,14.13
2019-04-16T07:50:55.064Z,13.88
2019-04-16T07:53:30.638Z,14.27
2019-04-16T07:56:03.130Z,14.10
2019-04-16T07:58:33.212Z,14.34
2019-04-16T08:01:05.219Z,14.75
2019-04-16T08:03:36.110Z,14.75
2019-04-16T08:06:07.431Z,14.93
2019-04-16T08:08:38.369Z,14.93
2019-04-16T08:11:09.561Z,14.60
2019-04-16T08:13:41.590Z,14.85
2019-04-16T08:16:14.142Z,15.07
2019-04-16T08:18:49.270Z,15.40
2019-04-16T08:21:22.735Z,15.65
2019-04-16T08:23:55.137Z,15.73
2019-04-16T08:26:26.450Z,15.97
2019-04-16T08:28:57.401Z,16.37
2019-04-16T08:31:28.693Z,16.72
2019-04-16T08:33:59.580Z,16.77
2019-04-16T08:36:29.709Z,16.69
2019-04-16T08:39:05.842Z,16.87
2019-04-16T08:41:33.442Z,16.85
2019-04-16T08:44:05.076Z,16.91
2019-04-16T08:46:36.168Z,16.82
2019-04-16T08:49:07.412Z,17.29
2019-04-16T08:51:38.419Z,18.03
2019-04-16T08:54:09.468Z,18.20
2019-04-16T08:56:40.442Z,17.75
2019-04-16T08:59:11.970Z,17.72
2019-04-16T09:01:42.918Z,18.12
2019-04-16T09:04:14.240Z,18.11
2019-04-16T09:06:46.213Z,17.65
2019-04-16T09:09:24.456Z,17.27
2019-04-16T09:11:56.490Z,17.34
2019-04-16T09:14:29.511Z,17.32
2019-04-16T09:17:09.535Z,18.02
2019-04-16T09:19:39.369Z,18.65
2019-04-16T09:22:15.958Z,19.09
2019-04-16T09:24:47.644Z,19.32
2019-04-16T09:27:28.672Z,19.46
2019-04-16T09:30:00.905Z,19.81
2019-04-16T09:32:46.331Z,20.28
2019-04-16T09:35:20.324Z,20.52
2019-04-16T09:38:02.242Z,20.65
2019-04-16T09:40:51.179Z,19.88
2019-04-16T09:43:32.936Z,19.64
2019-04-16T09:46:10.587Z,19.67
2019-04-16T09:48:36.878Z,20.22
2019-04-16T09:51:07.843Z,19.86
2019-04-16T09:53:40.265Z,19.04
2019-04-16T09:56:30.870Z,19.02
2019-04-16T09:59:04.594Z,19.44
2019-04-16T10:01:40.272Z,20.23
2019-04-16T10:04:15.929Z,19.58
2019-04-16T10:06:48.548Z,19.35
2019-04-16T10:09:21.632Z,19.35
2019-04-16T10:11:51.512Z,20.39
2019-04-16T10:14:22.477Z,21.17
2019-04-16T10:16:54.168Z,21.01
2019-04-16T10:19:25.147Z,20.92
2019-04-16T10:21:56.225Z,20.40
2019-04-16T10:24:45.016Z,21.21
2019-04-16T10:27:17.822Z,20.42
2019-04-16T10:29:48.745Z,20.11
2019-04-16T10:32:20.095Z,19.80
2019-04-16T10:35:11.925Z,19.40
2019-04-16T10:37:43.053Z,20.12
2019-04-16T10:40:24.703Z,21.43
2019-04-16T10:43:06.740Z,21.61
2019-04-16T10:45:42.011Z,22.25
2019-04-16T10:48:32.802Z,22.74
2019-04-16T10:51:21.823Z,21.45
2019-04-16T10:54:10.641Z,22.31
2019-04-16T10:56:59.811Z,21.90
2019-04-16T10:59:38.872Z,22.26
2019-04-16T11:02:11.727Z,21.87
2019-04-16T11:05:03.261Z,22.44
2019-04-16T11:07:36.991Z,22.23
2019-04-16T11:10:11.640Z,23.01
2019-04-16T11:12:41.679Z,22.73
2019-04-16T11:15:14.811Z,22.29
2019-04-16T11:17:47.158Z,21.52
2019-04-16T11:20:19.866Z,21.62
2019-04-16T11:22:50.864Z,22.48
2019-04-16T11:25:21.043Z,23.21
2019-04-16T11:27:52.491Z,23.36
2019-04-16T11:30:30.984Z,22.61
2019-04-16T11:33:02.235Z,22.86
2019-04-16T11:35:33.863Z,22.59
2019-04-16T11:38:05.342Z,22.23
2019-04-16T11:40:36.362Z,21.65
2019-04-16T11:43:07.768Z,20.93
2019-04-16T11:45:38.877Z,22.11
2019-04-16T11:48:10.062Z,23.81
2019-04-16T11:50:41.124Z,24.50
2019-04-16T11:53:12.475Z,23.94
2019-04-16T11:55:43.363Z,23.31
2019-04-16T11:58:15.310Z,23.82
2019-04-16T12:00:48.093Z,22.76
2019-04-16T12:03:19.975Z,22.84
2019-04-16T12:06:09.520Z,22.61
2019-04-16T12:08:44.935Z,22.38
2019-04-16T12:11:20.734Z,23.29
2019-04-16T12:14:09.950Z,24.42
2019-04-16T12:16:48.928Z,24.54
2019-04-16T12:19:24.454Z,23.95
2019-04-16T12:22:06.249Z,24.94
2019-04-16T12:24:50.906Z,24.85
2019-04-16T12:27:35.863Z,23.04
2019-04-16T12:30:13.201Z,24.25
2019-04-16T12:33:07.446Z,25.33
2019-04-16T12:35:51.908Z,26.09
2019-04-16T12:38:27.442Z,25.43
2019-04-16T12:41:00.011Z,25.52
2019-04-16T12:43:32.797Z,25.56
2019-04-16T12:46:20.792Z,25.59
2019-04-16T12:49:02.614Z,24.06
2019-04-16T12:51:44.216Z,22.55
2019-04-16T12:54:33.633Z,24.57
2019-04-16T12:57:06.323Z,26.46
2019-04-16T12:59:48.615Z,26.80
2019-04-16T13:02:25.371Z,24.34
2019-04-16T13:05:07.420Z,23.25
2019-04-16T13:07:43.599Z,23.25
2019-04-16T13:10:16.764Z,25.09
2019-04-16T13:12:56.269Z,25.09
2019-04-16T13:15:45.000Z,24.95
2019-04-16T13:18:23.938Z,25.22
2019-04-16T13:20:57.561Z,25.22
2019-04-16T13:23:40.022Z,25.22
2019-04-16T13:26:15.579Z,27.63
2019-04-16T13:28:46.774Z,27.86
2019-04-16T13:31:18.095Z,27.20
2019-04-16T13:33:50.963Z,24.52
2019-04-16T13:36:26.739Z,25.30
2019-04-16T13:41:50.163Z,25.46
2019-04-16T13:44:41.296Z,23.73
2019-04-16T13:47:14.184Z,23.27
2019-04-16T13:49:50.224Z,23.77
2019-04-16T13:52:25.128Z,23.77
2019-04-16T13:55:14.337Z,24.28
2019-04-16T13:57:49.448Z,25.86
2019-04-16T14:00:38.943Z,26.07
2019-04-16T14:03:13.551Z,25.38
2019-04-16T14:05:45.046Z,25.59
2019-04-16T14:08:16.146Z,25.59
2019-04-16T14:10:47.635Z,26.66
2019-04-16T14:13:19.251Z,27.02
2019-04-16T14:15:50.517Z,27.02
2019-04-16T14:18:22.016Z,26.44
2019-04-16T14:20:53.637Z,25.75
2019-04-16T14:23:25.488Z,25.80
2019-04-16T14:25:56.870Z,26.55
2019-04-16T14:28:28.052Z,26.11
2019-04-16T14:30:59.598Z,25.82
2019-04-16T14:36:24.617Z,24.42
2019-04-16T14:38:57.523Z,24.38
2019-04-16T14:41:27.615Z,24.38
2019-04-16T14:44:03.821Z,24.79
2019-04-16T14:46:34.909Z,24.79
2019-04-16T14:49:06.197Z,24.38
2019-04-16T14:51:37.506Z,24.25
2019-04-16T14:54:12.970Z,24.68
2019-04-16T14:56:49.628Z,24.05
2019-04-16T14:59:33.588Z,23.80
2019-04-16T15:01:57.055Z,24.05
2019-04-16T15:04:46.228Z,24.11
2019-04-16T15:07:21.478Z,24.55
2019-04-16T15:10:11.082Z,24.25
2019-04-16T15:12:46.400Z,24.18
2019-04-16T15:15:19.130Z,23.76
2019-04-16T15:18:06.859Z,23.49
2019-04-16T15:20:42.824Z,23.77
2019-04-16T15:23:17.810Z,24.41
2019-04-16T15:25:57.022Z,23.77
2019-04-16T15:28:35.556Z,23.58
2019-04-16T15:31:24.846Z,23.26
2019-04-16T15:34:13.515Z,22.90
2019-04-16T15:36:49.927Z,23.64
2019-04-16T15:39:20.978Z,24.48
2019-04-16T15:41:53.680Z,24.79
2019-04-16T15:44:26.251Z,24.98
2019-04-16T15:47:03.978Z,25.04
2019-04-16T15:49:45.487Z,24.02
2019-04-16T15:52:33.713Z,23.19
2019-04-16T15:55:07.897Z,22.70
2019-04-16T15:57:51.693Z,22.24
2019-04-16T16:00:36.941Z,22.42
2019-04-16T16:03:25.650Z,21.81
2019-04-16T16:06:04.145Z,21.31
2019-04-16T16:08:38.412Z,21.80
2019-04-16T16:11:17.450Z,21.94
2019-04-16T16:13:48.543Z,21.73
2019-04-16T16:16:19.871Z,21.30
2019-04-16T16:18:50.811Z,21.32
2019-04-16T16:21:21.867Z,21.12
2019-04-16T16:23:53.269Z,21.25
2019-04-16T16:26:24.289Z,20.78
2019-04-16T16:28:55.385Z,20.72
2019-04-16T16:31:32.097Z,20.84
2019-04-16T16:34:01.344Z,20.61
2019-04-16T16:36:36.296Z,20.10
2019-04-16T16:39:07.525Z,19.96
2019-04-16T16:41:38.727Z,19.81
2019-04-16T16:44:09.668Z,19.63
2019-04-16T16:46:58.406Z,19.55
2019-04-16T16:49:29.803Z,19.57
2019-04-16T16:52:16.837Z,19.72
2019-04-16T16:54:49.863Z,19.71
2019-04-16T16:57:22.658Z,19.52
2019-04-16T16:59:57.477Z,19.48
2019-04-16T17:02:32.744Z,19.54
2019-04-16T17:05:06.404Z,19.49
2019-04-16T17:07:37.443Z,19.35
2019-04-16T17:10:08.867Z,19.19
2019-04-16T17:12:39.880Z,19.07
2019-04-16T17:15:11.145Z,19.04
2019-04-16T17:17:42.910Z,19.04
2019-04-16T17:20:14.524Z,18.77
2019-04-16T17:22:45.674Z,18.47
2019-04-16T17:25:16.826Z,18.37
2019-04-16T17:27:51.471Z,18.24
2019-04-16T17:30:20.664Z,18.12
2019-04-16T17:32:52.019Z,18.00
2019-04-16T17:35:23.253Z,17.86
2019-04-16T17:38:02.709Z,17.76
2019-04-16T17:40:51.089Z,17.64
2019-04-16T17:43:30.976Z,17.48
2019-04-16T17:46:15.176Z,17.35
2019-04-16T17:48:48.130Z,17.23
2019-04-16T17:51:26.751Z,17.12
2019-04-16T17:54:02.769Z,17.00
2019-04-16T17:56:40.776Z,16.90
2019-04-16T17:59:13.701Z,16.77
2019-04-16T18:01:48.976Z,16.67
2019-04-16T18:04:24.310Z,16.54
2019-04-16T18:06:59.496Z,16.41
2019-04-16T18:09:36.656Z,16.30
2019-04-16T18:12:21.681Z,16.16
2019-04-16T18:15:00.733Z,16.03
2019-04-16T18:17:46.236Z,15.88
2019-04-16T18:20:08.432Z,15.79
2019-04-16T18:22:57.727Z,15.67
2019-04-16T18:25:33.456Z,15.63
2019-04-16T18:28:06.802Z,15.56
2019-04-16T18:30:45.785Z,15.45
2019-04-16T18:33:21.457Z,15.38
2019-04-16T18:36:17.070Z,15.41
2019-04-16T18:39:05.519Z,15.44
2019-04-16T18:41:38.889Z,15.35
2019-04-16T18:44:14.637Z,15.34
2019-04-16T18:46:50.313Z,15.37
2019-04-16T18:49:22.842Z,15.31
2019-04-16T18:51:52.995Z,15.25
2019-04-16T18:54:24.036Z,15.19
2019-04-16T18:56:54.928Z,15.14
2019-04-16T18:59:26.072Z,15.08
2019-04-16T19:02:00.115Z,15.04
2019-04-16T19:04:31.381Z,15.02
2019-04-16T19:07:02.402Z,14.98
2019-04-16T19:09:33.747Z,14.92
2019-04-16T19:12:04.777Z,14.82
2019-04-16T19:14:36.721Z,14.75
2019-04-16T19:17:08.392Z,14.67
2019-04-16T19:19:44.615Z,14.63
2019-04-16T19:22:15.851Z,14.53
2019-04-16T19:24:45.820Z,14.47
2019-04-16T19:27:16.974Z,14.38
2019-04-16T19:29:47.896Z,14.30
2019-04-16T19:32:19.064Z,14.22
2019-04-16T19:34:49.906Z,14.12
2019-04-16T19:37:23.916Z,14.11
2019-04-16T19:39:54.832Z,14.13
2019-04-16T19:42:28.753Z,14.06
2019-04-16T19:44:58.686Z,14.00
2019-04-16T19:47:29.689Z,13.96
2019-04-16T19:50:00.521Z,13.91
2019-04-16T19:52:31.751Z,13.81
2019-04-16T19:55:02.574Z,13.75
2019-04-16T19:57:35.004Z,13.73
2019-04-16T20:00:07.912Z,13.73
2019-04-16T20:02:37.892Z,13.67
2019-04-16T20:05:08.985Z,13.62
2019-04-16T20:07:39.833Z,13.53
2019-04-16T20:10:11.888Z,13.47
2019-04-16T20:12:42.744Z,13.38
2019-04-16T20:15:13.923Z,13.30
2019-04-16T20:17:44.844Z,13.22
2019-04-16T20:20:16.055Z,13.17
2019-04-16T20:22:47.108Z,13.09
2019-04-16T20:25:18.224Z,13.04
2019-04-16T20:27:49.101Z,13.00
2019-04-16T20:30:29.617Z,12.96
2019-04-16T20:33:02.461Z,12.90
2019-04-16T20:35:32.633Z,12.84
2019-04-16T20:38:03.755Z,12.78
2019-04-16T20:40:34.603Z,12.74
2019-04-16T20:43:05.912Z,12.71
2019-04-16T20:45:36.711Z,12.67
2019-04-16T20:48:09.087Z,12.59
2019-04-16T20:50:40.291Z,12.61
2019-04-16T20:53:11.329Z,12.61
2019-04-16T20:55:47.095Z,12.58
2019-04-16T20:58:15.061Z,12.56
2019-04-16T21:00:47.541Z,12.64
2019-04-16T21:03:22.310Z,12.66
2019-04-16T21:05:59.262Z,12.65
2019-04-16T21:08:25.167Z,12.58
2019-04-16T21:10:59.203Z,12.65
2019-04-16T21:13:29.273Z,12.69
2019-04-16T21:16:01.321Z,12.66
2019-04-16T21:18:32.907Z,12.65
2019-04-16T21:21:04.010Z,12.61
2019-04-16T21:23:35.477Z,12.59
2019-04-16T21:26:06.824Z,12.57
2019-04-16T21:28:44.963Z,12.60
2019-04-16T21:31:20.209Z,12.61
2019-04-16T21:33:58.693Z,12.57
2019-04-16T21:36:47.579Z,12.48
2019-04-16T21:39:23.031Z,12.46
2019-04-16T21:42:02.567Z,12.46
2019-04-16T21:44:33.335Z,12.41
2019-04-16T21:47:04.360Z,12.36
2019-04-16T21:49:38.753Z,12.35
2019-04-16T21:52:08.177Z,12.27
2019-04-16T21:54:39.310Z,12.20
2019-04-16T21:57:13.496Z,12.15
2019-04-16T21:59:42.463Z,12.10
2019-04-16T22:02:17.915Z,12.04
2019-04-16T22:04:49.114Z,11.99
2019-04-16T22:07:24.236Z,12.04
2019-04-16T22:09:52.824Z,11.98
2019-04-16T22:12:23.872Z,11.93
2019-04-16T22:14:55.333Z,11.89
2019-04-16T22:17:26.495Z,11.89
2019-04-16T22:20:01.313Z,11.95
2019-04-16T22:22:30.110Z,11.87
2019-04-16T22:25:01.307Z,11.73
2019-04-16T22:27:32.139Z,11.74
2019-04-16T22:30:04.824Z,11.72
2019-04-16T22:32:36.166Z,11.68
2019-04-16T22:35:09.172Z,11.61
2019-04-16T22:37:40.176Z,11.64
2019-04-16T22:40:22.578Z,11.59
2019-04-16T22:43:06.211Z,11.55
2019-04-16T22:45:45.239Z,11.43
2019-04-16T22:48:19.030Z,11.37
2019-04-16T22:50:49.963Z,11.29
2019-04-16T22:53:21.064Z,11.27
2019-04-16T22:55:56.448Z,11.26
2019-04-16T22:58:25.712Z,11.18
2019-04-16T23:00:58.209Z,11.16
2019-04-16T23:03:29.222Z,11.08
2019-04-16T23:06:01.388Z,11.04
2019-04-16T23:08:32.954Z,10.98
2019-04-16T23:11:03.855Z,10.91
2019-04-16T23:13:33.842Z,10.86
2019-04-16T23:16:05.279Z,10.82
2019-04-16T23:18:36.156Z,10.74
2019-04-16T23:21:10.016Z,10.68
2019-04-16T23:23:39.799Z,10.62
2019-04-16T23:26:10.830Z,10.53
2019-04-16T23:28:42.454Z,10.43
2019-04-16T23:31:14.052Z,10.40
2019-04-16T23:33:45.046Z,10.36
2019-04-16T23:36:16.708Z,10.30
2019-04-16T23:38:47.652Z,10.22
2019-04-16T23:41:18.884Z,10.17
2019-04-16T23:43:54.464Z,10.13
2019-04-16T23:46:37.749Z,10.02
2019-04-16T23:49:26.459Z,9.86
2019-04-16T23:52:11.528Z,9.68
2019-04-16T23:54:44.874Z,9.55
2019-04-16T23:57:17.620Z,9.46
2019-04-16T23:59:58.837Z,9.35
